createdAt,value
2022-12-31T00:00:12.970Z,40.10
2022-12-31T00:02:40.448Z,42.37
2022-12-31T00:05:08.301Z,43.88
2022-12-31T00:10:03.948Z,43.30
2022-12-31T00:12:31.786Z,45.45
2022-12-31T00:14:59.552Z,35.23
2022-12-31T00:17:27.075Z,36.60
2022-12-31T00:19:54.760Z,36.90
2022-12-31T00:22:22.312Z,37.47
2022-12-31T00:24:49.778Z,41.42
2022-12-31T00:27:17.223Z,46.40
2022-12-31T00:29:44.988Z,46.08
2022-12-31T00:32:12.629Z,44.17
2022-12-31T00:34:39.954Z,45.30
2022-12-31T00:37:07.876Z,43.20
2022-12-31T00:39:35.569Z,45.47
2022-12-31T00:42:03.228Z,39.65
2022-12-31T00:44:31.082Z,42.17
2022-12-31T00:46:58.495Z,44.50
2022-12-31T00:49:26.054Z,42.63
2022-12-31T00:51:53.568Z,36.77
2022-12-31T00:54:21.220Z,45.25
2022-12-31T00:56:48.721Z,43.58
2022-12-31T00:59:16.237Z,42.03
2022-12-31T01:01:44.234Z,45.90
2022-12-31T01:04:15.080Z,45.33
2022-12-31T01:06:43.752Z,37.45
2022-12-31T01:09:12.258Z,40.72
2022-12-31T01:11:39.673Z,41.60
2022-12-31T01:14:16.089Z,41.45
2022-12-31T01:16:46.086Z,44.57
2022-12-31T01:19:18.800Z,51.03
2022-12-31T01:21:47.585Z,42.22
2022-12-31T01:24:15.910Z,48.20
2022-12-31T01:26:43.878Z,51.65
2022-12-31T01:29:11.911Z,40.63
2022-12-31T01:31:39.885Z,42.92
2022-12-31T01:34:08.087Z,45.47
2022-12-31T01:36:37.091Z,38.33
2022-12-31T01:39:06.137Z,46.05
2022-12-31T01:41:37.811Z,44.20
2022-12-31T01:44:14.092Z,44.92
2022-12-31T01:46:53.262Z,46.03
2022-12-31T01:49:26.815Z,42.22
2022-12-31T01:52:18.988Z,42.47
2022-12-31T01:55:00.128Z,35.87
2022-12-31T01:57:28.264Z,33.17
2022-12-31T01:59:57.110Z,30.38
2022-12-31T02:02:25.097Z,28.17
2022-12-31T02:04:54.988Z,31.83
2022-12-31T02:07:23.144Z,26.23
2022-12-31T02:09:50.820Z,31.58
2022-12-31T02:12:18.130Z,27.00
2022-12-31T02:14:49.040Z,27.88
2022-12-31T02:17:37.909Z,26.77
2022-12-31T02:20:26.931Z,30.10
2022-12-31T02:23:00.688Z,29.77
2022-12-31T02:25:57.623Z,27.83
2022-12-31T02:28:38.044Z,27.85
2022-12-31T02:31:25.119Z,29.92
2022-12-31T02:34:03.834Z,30.40
2022-12-31T02:36:35.112Z,31.05
2022-12-31T02:39:04.115Z,30.08
2022-12-31T02:41:49.834Z,28.80
2022-12-31T02:44:31.269Z,27.77
2022-12-31T02:46:58.699Z,26.37
2022-12-31T02:49:34.109Z,28.13
2022-12-31T02:52:10.166Z,29.02
2022-12-31T02:55:05.088Z,32.33
2022-12-31T02:57:32.705Z,30.45
2022-12-31T03:00:25.154Z,30.00
2022-12-31T03:02:53.230Z,37.33
2022-12-31T03:05:24.950Z,31.60
2022-12-31T03:07:52.638Z,32.50
2022-12-31T03:10:20.065Z,30.42
2022-12-31T03:12:48.347Z,36.30
2022-12-31T03:15:24.735Z,33.58
2022-12-31T03:18:17.029Z,34.38
2022-12-31T03:21:07.652Z,27.98
2022-12-31T03:23:37.078Z,36.30
2022-12-31T03:26:11.852Z,37.20
2022-12-31T03:28:41.260Z,36.90
2022-12-31T03:31:09.254Z,35.28
2022-12-31T03:33:40.194Z,35.22
2022-12-31T03:36:11.123Z,37.70
2022-12-31T03:38:38.956Z,33.33
2022-12-31T03:41:06.650Z,38.97
2022-12-31T03:43:34.203Z,41.50
2022-12-31T03:46:02.031Z,36.10
2022-12-31T03:48:29.867Z,39.33
2022-12-31T03:50:57.311Z,42.87
2022-12-31T03:53:24.866Z,41.67
2022-12-31T03:55:55.209Z,36.75
2022-12-31T03:58:22.749Z,42.72
2022-12-31T04:00:50.702Z,44.45
2022-12-31T04:03:18.367Z,43.53
2022-12-31T04:05:46.095Z,38.78
2022-12-31T04:08:13.556Z,39.13
2022-12-31T04:10:41.113Z,39.65
2022-12-31T04:13:08.849Z,41.05
2022-12-31T04:15:36.135Z,47.20
2022-12-31T04:18:04.038Z,40.33
2022-12-31T04:20:31.540Z,43.30
2022-12-31T04:22:59.102Z,43.42
2022-12-31T04:25:26.880Z,37.22
2022-12-31T04:27:54.389Z,39.63
2022-12-31T04:30:22.110Z,46.60
2022-12-31T04:32:49.684Z,38.03
2022-12-31T04:35:17.137Z,34.15
2022-12-31T04:37:44.992Z,40.90
2022-12-31T04:40:13.016Z,39.97
2022-12-31T04:42:40.238Z,36.10
2022-12-31T04:45:08.267Z,36.13
2022-12-31T04:47:35.534Z,35.83
2022-12-31T04:50:03.240Z,39.53
2022-12-31T04:52:30.683Z,39.10
2022-12-31T04:54:58.154Z,41.85
2022-12-31T04:57:25.770Z,40.95
2022-12-31T04:59:53.121Z,48.53
2022-12-31T05:02:20.817Z,45.25
2022-12-31T05:04:48.128Z,53.50
2022-12-31T05:07:15.518Z,47.88
2022-12-31T05:09:43.125Z,62.08
2022-12-31T05:12:10.255Z,40.97
2022-12-31T05:14:37.870Z,46.35
2022-12-31T05:17:05.309Z,46.17
2022-12-31T05:19:32.900Z,56.58
2022-12-31T05:22:19.098Z,55.05
2022-12-31T05:24:46.451Z,47.85
2022-12-31T05:27:14.150Z,51.80
2022-12-31T05:29:41.266Z,51.73
2022-12-31T05:32:08.441Z,41.03
2022-12-31T05:34:36.024Z,44.58
2022-12-31T05:37:03.793Z,36.92
2022-12-31T05:39:31.281Z,33.42
2022-12-31T05:41:59.029Z,42.63
2022-12-31T05:44:26.288Z,39.70
2022-12-31T05:46:53.715Z,46.80
2022-12-31T05:49:21.279Z,41.28
2022-12-31T05:51:48.488Z,43.67
2022-12-31T05:54:16.151Z,48.13
2022-12-31T05:56:43.367Z,46.35
2022-12-31T05:59:11.284Z,53.05
2022-12-31T06:01:39.078Z,39.05
2022-12-31T06:04:06.921Z,48.80
2022-12-31T06:06:34.528Z,42.90
2022-12-31T06:09:02.111Z,41.58
2022-12-31T06:11:30.043Z,33.05
2022-12-31T06:13:58.482Z,37.25
2022-12-31T06:16:25.928Z,40.55
2022-12-31T06:18:53.571Z,37.93
2022-12-31T06:21:21.834Z,40.25
2022-12-31T06:23:49.449Z,40.42
2022-12-31T06:26:17.163Z,45.58
2022-12-31T06:28:44.732Z,53.42
2022-12-31T06:31:13.652Z,51.13
2022-12-31T06:33:41.324Z,54.75
2022-12-31T06:36:11.168Z,63.08
2022-12-31T06:38:40.950Z,56.00
2022-12-31T06:41:10.603Z,51.83
2022-12-31T06:43:39.040Z,53.70
2022-12-31T06:46:09.117Z,58.47
2022-12-31T06:48:37.163Z,50.85
2022-12-31T06:51:06.679Z,56.53
2022-12-31T06:53:36.319Z,60.20
2022-12-31T06:56:14.322Z,51.70
2022-12-31T06:58:42.323Z,40.70
2022-12-31T07:01:43.329Z,43.53
2022-12-31T07:04:32.083Z,41.42
2022-12-31T07:07:05.749Z,44.75
2022-12-31T07:09:54.066Z,40.60
2022-12-31T07:12:43.091Z,35.67
2022-12-31T07:15:35.333Z,38.42
2022-12-31T07:18:07.154Z,33.75
2022-12-31T07:20:35.308Z,41.13
2022-12-31T07:23:03.338Z,47.90
2022-12-31T07:25:31.338Z,49.97
2022-12-31T07:28:22.449Z,49.47
2022-12-31T07:31:01.493Z,47.55
2022-12-31T07:33:40.958Z,55.63
2022-12-31T07:36:28.095Z,42.10
2022-12-31T07:39:06.291Z,38.75
2022-12-31T07:45:01.358Z,41.55
2022-12-31T07:47:29.697Z,41.70
2022-12-31T07:49:58.104Z,37.87
2022-12-31T07:52:26.109Z,33.72
2022-12-31T07:54:53.330Z,37.92
2022-12-31T07:57:21.851Z,41.05
2022-12-31T08:00:11.203Z,29.88
2022-12-31T08:03:14.380Z,34.33
2022-12-31T08:06:11.170Z,40.15
2022-12-31T08:09:03.115Z,35.63
2022-12-31T08:11:36.784Z,33.20
2022-12-31T08:14:04.785Z,34.60
2022-12-31T08:16:32.816Z,38.30
2022-12-31T08:19:01.143Z,33.55
2022-12-31T08:21:41.210Z,30.10
2022-12-31T08:24:09.123Z,33.90
2022-12-31T08:26:53.057Z,27.17
2022-12-31T08:29:35.127Z,31.77
2022-12-31T08:32:25.572Z,27.63
2022-12-31T08:35:06.796Z,33.95
2022-12-31T08:37:40.384Z,34.85
2022-12-31T08:40:08.387Z,32.47
2022-12-31T08:42:45.231Z,34.20
2022-12-31T08:45:39.190Z,34.63
2022-12-31T08:48:36.300Z,33.75
2022-12-31T08:51:04.137Z,35.80
2022-12-31T08:53:33.148Z,37.95
2022-12-31T08:56:07.901Z,40.03
2022-12-31T08:59:08.147Z,45.42
2022-12-31T09:02:02.500Z,46.22
2022-12-31T09:04:42.020Z,36.05
2022-12-31T09:07:12.126Z,33.75
2022-12-31T09:09:56.411Z,34.17
2022-12-31T09:12:38.623Z,32.25
2022-12-31T09:15:16.099Z,34.80
2022-12-31T09:17:45.147Z,32.45
2022-12-31T09:20:26.235Z,32.03
2022-12-31T09:22:55.151Z,28.53
2022-12-31T09:25:23.596Z,32.03
2022-12-31T09:28:23.571Z,30.55
2022-12-31T09:30:54.155Z,30.52
2022-12-31T09:33:24.337Z,30.60
2022-12-31T09:35:58.160Z,27.50
2022-12-31T09:38:34.012Z,24.00
2022-12-31T09:41:14.166Z,27.75
2022-12-31T09:44:00.928Z,26.58
2022-12-31T09:46:53.745Z,26.70
2022-12-31T09:49:36.050Z,28.30
2022-12-31T09:52:28.462Z,28.33
2022-12-31T09:55:31.280Z,30.63
2022-12-31T09:58:17.434Z,27.42
2022-12-31T10:00:52.476Z,25.60
2022-12-31T10:03:32.402Z,27.33
2022-12-31T10:06:05.069Z,28.40
2022-12-31T10:08:48.087Z,35.13
2022-12-31T10:11:22.443Z,33.60
2022-12-31T10:13:59.168Z,25.70
2022-12-31T10:17:03.052Z,28.57
2022-12-31T10:19:30.445Z,31.67
2022-12-31T10:22:28.281Z,30.50
2022-12-31T10:25:39.580Z,34.30
2022-12-31T10:28:45.444Z,34.42
2022-12-31T10:31:37.882Z,31.40
2022-12-31T10:34:26.757Z,40.30
2022-12-31T10:36:59.178Z,31.77
2022-12-31T10:40:04.872Z,39.17
2022-12-31T10:42:52.967Z,32.83
2022-12-31T10:46:01.916Z,36.30
2022-12-31T10:48:44.463Z,37.28
2022-12-31T10:51:33.858Z,36.60
2022-12-31T10:54:25.860Z,38.08
2022-12-31T10:57:15.430Z,36.28
2022-12-31T11:00:04.190Z,43.20
2022-12-31T11:02:40.981Z,36.70
2022-12-31T11:05:39.164Z,42.70
2022-12-31T11:08:44.052Z,40.90
2022-12-31T11:11:42.196Z,64.88
2022-12-31T11:14:40.194Z,46.97
2022-12-31T11:17:31.969Z,61.67
2022-12-31T11:20:15.528Z,57.10
2022-12-31T11:23:14.029Z,52.63
2022-12-31T11:25:54.195Z,54.95
2022-12-31T11:28:24.180Z,53.10
2022-12-31T11:30:51.854Z,51.70
2022-12-31T11:33:37.979Z,52.67
2022-12-31T11:36:35.192Z,49.30
2022-12-31T11:39:09.202Z,55.28
2022-12-31T11:41:47.208Z,61.57
2022-12-31T11:44:33.322Z,54.92
2022-12-31T11:48:28.029Z,50.88
2022-12-31T11:51:01.503Z,55.10
2022-12-31T11:53:35.229Z,55.00
2022-12-31T11:56:20.325Z,53.87
2022-12-31T11:58:52.867Z,47.70
2022-12-31T12:01:56.352Z,51.92
2022-12-31T12:04:23.990Z,46.35
2022-12-31T12:06:52.401Z,53.25
2022-12-31T12:09:29.199Z,46.60
2022-12-31T12:12:02.546Z,47.05
2022-12-31T12:14:43.078Z,48.63
2022-12-31T12:17:15.166Z,46.22
2022-12-31T12:19:46.019Z,45.88
2022-12-31T12:22:19.217Z,54.67
2022-12-31T12:24:55.341Z,52.92
2022-12-31T12:27:25.220Z,51.47
2022-12-31T12:29:53.469Z,47.53
2022-12-31T12:32:25.221Z,53.88
2022-12-31T12:34:53.633Z,51.53
2022-12-31T12:37:30.498Z,45.28
2022-12-31T12:40:06.915Z,51.42
2022-12-31T12:42:34.908Z,53.08
2022-12-31T12:45:16.543Z,51.85
2022-12-31T12:47:45.228Z,48.00
2022-12-31T12:50:22.118Z,53.53
2022-12-31T12:53:06.229Z,54.03
2022-12-31T12:56:05.231Z,51.20
2022-12-31T12:59:01.918Z,56.63
2022-12-31T13:01:51.537Z,51.47
2022-12-31T13:04:38.357Z,51.40
2022-12-31T13:07:11.844Z,47.00
2022-12-31T13:09:48.424Z,50.83
2022-12-31T13:12:37.909Z,49.88
2022-12-31T13:15:21.255Z,49.10
2022-12-31T13:18:13.359Z,49.85
2022-12-31T13:20:57.500Z,49.88
2022-12-31T13:23:42.932Z,51.75
2022-12-31T13:26:21.243Z,54.58
2022-12-31T13:28:49.420Z,52.13
2022-12-31T13:31:20.574Z,59.35
2022-12-31T13:33:52.297Z,53.80
2022-12-31T13:36:25.559Z,53.38
2022-12-31T13:38:55.225Z,55.10
2022-12-31T13:41:31.249Z,56.63
2022-12-31T13:44:21.194Z,56.40
2022-12-31T13:46:57.250Z,55.60
2022-12-31T13:49:47.120Z,60.25
2022-12-31T13:52:31.380Z,54.78
2022-12-31T13:55:02.258Z,54.37
2022-12-31T13:58:02.548Z,58.83
2022-12-31T14:00:42.356Z,59.70
2022-12-31T14:03:40.051Z,61.22
2022-12-31T14:06:37.397Z,57.55
2022-12-31T14:09:06.267Z,53.77
2022-12-31T14:12:12.396Z,55.13
2022-12-31T14:14:54.261Z,59.88
2022-12-31T14:17:31.402Z,61.47
2022-12-31T14:20:29.599Z,57.47
2022-12-31T14:23:28.265Z,55.77
2022-12-31T14:26:00.268Z,55.83
2022-12-31T14:28:46.456Z,56.80
2022-12-31T14:31:36.388Z,54.67
2022-12-31T14:34:19.584Z,53.10
2022-12-31T14:37:19.353Z,53.87
2022-12-31T14:40:02.229Z,55.65
2022-12-31T14:42:53.572Z,50.38
2022-12-31T14:45:40.610Z,55.15
2022-12-31T14:48:26.967Z,56.47
2022-12-31T14:50:54.360Z,51.83
2022-12-31T14:53:26.469Z,58.92
2022-12-31T14:56:30.576Z,55.25
2022-12-31T14:59:02.384Z,55.80
2022-12-31T15:01:30.526Z,53.40
2022-12-31T15:03:58.980Z,54.90
2022-12-31T15:06:26.490Z,50.95
2022-12-31T15:09:08.308Z,51.28
2022-12-31T15:12:11.547Z,63.45
2022-12-31T15:15:05.095Z,59.50
2022-12-31T15:17:51.292Z,60.00
2022-12-31T15:20:53.427Z,57.47
2022-12-31T15:23:25.287Z,61.40
2022-12-31T15:25:59.200Z,61.17
2022-12-31T15:28:34.360Z,58.97
2022-12-31T15:31:05.473Z,62.97
2022-12-31T15:33:37.615Z,63.35
2022-12-31T15:36:20.399Z,71.97
2022-12-31T15:38:49.394Z,73.85
2022-12-31T15:41:29.387Z,66.22
2022-12-31T15:44:21.169Z,67.97
2022-12-31T15:46:53.456Z,64.35
2022-12-31T15:49:25.321Z,68.32
2022-12-31T15:52:15.816Z,69.63
2022-12-31T15:54:45.402Z,64.95
2022-12-31T15:57:18.001Z,63.33
2022-12-31T15:59:46.324Z,64.22
2022-12-31T16:02:23.738Z,65.20
2022-12-31T16:04:51.624Z,66.20
2022-12-31T16:07:19.309Z,64.80
2022-12-31T16:09:55.008Z,60.57
2022-12-31T16:12:32.655Z,59.40
2022-12-31T16:15:02.381Z,61.38
2022-12-31T16:17:35.634Z,57.95
2022-12-31T16:20:25.218Z,65.53
2022-12-31T16:22:56.416Z,64.33
2022-12-31T16:25:33.396Z,63.10
2022-12-31T16:28:02.575Z,60.20
2022-12-31T16:30:36.210Z,67.50
2022-12-31T16:33:06.334Z,63.17
2022-12-31T16:35:39.031Z,64.87
2022-12-31T16:38:17.633Z,60.00
2022-12-31T16:41:05.260Z,62.35
2022-12-31T16:43:40.317Z,63.45
2022-12-31T16:46:27.461Z,93.43
2022-12-31T16:48:57.643Z,61.50
2022-12-31T16:51:31.638Z,58.10
2022-12-31T16:54:00.034Z,61.03
2022-12-31T16:56:36.418Z,64.85
2022-12-31T16:59:07.592Z,68.20
2022-12-31T17:01:37.414Z,64.03
2022-12-31T17:04:08.346Z,63.38
2022-12-31T17:06:36.158Z,59.38
2022-12-31T17:09:22.414Z,57.40
2022-12-31T17:11:50.746Z,62.90
2022-12-31T17:14:20.644Z,57.40
2022-12-31T17:17:07.333Z,70.07
2022-12-31T17:19:37.567Z,66.93
2022-12-31T17:22:08.041Z,124.63
2022-12-31T17:24:35.611Z,93.00
2022-12-31T17:27:05.334Z,100.33
2022-12-31T17:29:34.053Z,102.05
2022-12-31T17:32:25.651Z,99.20
2022-12-31T17:34:53.337Z,100.55
2022-12-31T17:37:28.867Z,106.07
2022-12-31T17:42:49.345Z,86.63
2022-12-31T17:45:20.677Z,96.22
2022-12-31T17:47:51.352Z,100.50
2022-12-31T17:50:22.497Z,92.57
2022-12-31T17:52:50.055Z,85.73
2022-12-31T17:55:17.373Z,87.70
2022-12-31T17:58:04.664Z,87.80
2022-12-31T18:00:33.831Z,82.88
2022-12-31T18:03:01.377Z,88.78
2022-12-31T18:05:29.072Z,79.90
2022-12-31T18:07:56.441Z,89.13
2022-12-31T18:10:25.435Z,89.32
2022-12-31T18:12:53.303Z,87.63
2022-12-31T18:15:23.451Z,87.97
2022-12-31T18:17:51.436Z,81.50
2022-12-31T18:20:19.388Z,92.40
2022-12-31T18:22:47.074Z,79.70
2022-12-31T18:25:20.186Z,85.00
2022-12-31T18:27:48.441Z,80.80
2022-12-31T18:30:19.446Z,72.43
2022-12-31T18:32:47.338Z,70.75
2022-12-31T18:36:06.559Z,68.45
2022-12-31T18:38:12.598Z,66.80
2022-12-31T18:40:43.081Z,64.45
2022-12-31T18:43:18.082Z,65.03
2022-12-31T18:45:47.363Z,67.63
2022-12-31T18:48:15.456Z,66.90
2022-12-31T18:50:43.467Z,61.20
2022-12-31T18:53:19.417Z,56.05
2022-12-31T18:55:50.606Z,63.30
2022-12-31T18:58:18.465Z,62.90
2022-12-31T19:00:47.282Z,66.03
2022-12-31T19:03:19.573Z,73.90
2022-12-31T19:05:51.344Z,68.80
2022-12-31T19:08:20.684Z,66.03
2022-12-31T19:10:49.477Z,60.35
2022-12-31T19:13:18.776Z,56.92
2022-12-31T19:15:53.684Z,58.28
2022-12-31T19:18:21.700Z,51.97
2022-12-31T19:20:49.376Z,54.60
2022-12-31T19:23:19.771Z,62.75
2022-12-31T19:25:48.222Z,53.88
2022-12-31T19:28:23.795Z,67.45
2022-12-31T19:30:51.479Z,91.88
2022-12-31T19:33:19.717Z,100.77
2022-12-31T19:35:47.693Z,70.68
2022-12-31T19:38:24.261Z,68.13
2022-12-31T19:40:53.481Z,72.15
2022-12-31T19:43:23.800Z,60.88
2022-12-31T19:45:52.520Z,53.03
2022-12-31T19:48:25.853Z,52.40
2022-12-31T19:50:57.798Z,40.78
2022-12-31T19:53:27.264Z,46.35
2022-12-31T19:55:54.801Z,48.33
2022-12-31T19:58:25.690Z,44.33
2022-12-31T20:01:01.050Z,40.13
2022-12-31T20:03:29.782Z,46.17
2022-12-31T20:06:05.012Z,44.90
2022-12-31T20:08:33.492Z,52.20
2022-12-31T20:11:12.376Z,46.33
2022-12-31T20:13:40.896Z,45.70
2022-12-31T20:16:10.375Z,53.78
2022-12-31T20:18:39.461Z,59.95
2022-12-31T20:21:12.489Z,63.25
2022-12-31T20:23:40.122Z,66.07
2022-12-31T20:26:07.825Z,69.05
2022-12-31T20:28:36.712Z,61.60
2022-12-31T20:31:13.773Z,57.40
2022-12-31T20:33:41.730Z,68.55
2022-12-31T20:36:11.380Z,79.83
2022-12-31T20:38:39.385Z,62.10
2022-12-31T20:41:12.501Z,63.97
2022-12-31T20:43:40.498Z,60.22
2022-12-31T20:46:14.808Z,57.92
2022-12-31T20:48:44.712Z,65.80
2022-12-31T20:51:13.732Z,65.68
2022-12-31T20:53:46.717Z,75.95
2022-12-31T20:56:15.271Z,69.45
2022-12-31T20:58:42.723Z,87.13
2022-12-31T21:01:11.684Z,85.40
2022-12-31T21:06:30.758Z,79.07
2022-12-31T21:08:59.523Z,76.72
2022-12-31T21:11:46.032Z,83.90
2022-12-31T21:14:13.848Z,74.90
2022-12-31T21:16:41.726Z,77.07
2022-12-31T21:19:10.168Z,74.93
2022-12-31T21:21:38.174Z,78.25
2022-12-31T21:24:05.856Z,72.95
2022-12-31T21:26:34.664Z,71.13
2022-12-31T21:29:02.522Z,66.03
2022-12-31T21:31:30.580Z,73.05
2022-12-31T21:33:58.452Z,67.05
2022-12-31T21:36:25.868Z,70.93
2022-12-31T21:38:53.527Z,67.60
2022-12-31T21:41:39.382Z,72.88
2022-12-31T21:44:07.531Z,71.50
2022-12-31T21:46:35.211Z,73.43
2022-12-31T21:49:03.180Z,75.40
2022-12-31T21:51:30.739Z,71.53
2022-12-31T21:53:58.590Z,76.65
2022-12-31T21:56:26.178Z,88.10
2022-12-31T21:59:16.547Z,92.78
2022-12-31T22:02:02.740Z,92.47
2022-12-31T22:07:17.828Z,82.35
2022-12-31T22:09:45.458Z,81.55
2022-12-31T22:12:13.256Z,87.18
2022-12-31T22:15:15.015Z,73.18
2022-12-31T22:17:28.585Z,72.03
2022-12-31T22:22:44.545Z,77.90
2022-12-31T22:25:12.331Z,74.93
2022-12-31T22:27:39.747Z,72.30
2022-12-31T22:30:08.559Z,66.70
2022-12-31T22:32:37.188Z,72.15
2022-12-31T22:35:05.134Z,70.75
2022-12-31T22:37:56.116Z,64.20
2022-12-31T22:40:20.642Z,70.28
2022-12-31T22:42:48.182Z,65.23
2022-12-31T22:45:15.754Z,67.45
2022-12-31T22:47:43.564Z,69.72
2022-12-31T22:50:11.108Z,71.93
2022-12-31T22:52:38.715Z,66.60
2022-12-31T22:55:07.224Z,69.07
2022-12-31T22:57:34.758Z,74.82
2022-12-31T23:00:02.644Z,63.75
2022-12-31T23:02:31.227Z,63.00
2022-12-31T23:05:15.453Z,64.03
2022-12-31T23:07:43.933Z,70.03
2022-12-31T23:10:30.570Z,62.28
2022-12-31T23:13:19.569Z,61.72
2022-12-31T23:16:05.811Z,76.32
2022-12-31T23:18:52.351Z,72.88
2022-12-31T23:21:38.634Z,78.33
2022-12-31T23:24:10.055Z,84.82
2022-12-31T23:26:44.581Z,68.85
2022-12-31T23:29:11.914Z,75.93
2022-12-31T23:31:39.852Z,81.43
2022-12-31T23:34:08.662Z,82.67
2022-12-31T23:36:36.551Z,88.28
2022-12-31T23:39:04.215Z,107.13
2022-12-31T23:41:31.814Z,90.20
2022-12-31T23:43:59.597Z,81.40
2022-12-31T23:46:27.373Z,84.57
2022-12-31T23:48:54.665Z,87.20
2022-12-31T23:51:22.459Z,102.90
2022-12-31T23:53:51.654Z,93.95
2022-12-31T23:56:23.579Z,92.93
2022-12-31T23:58:58.959Z,78.57
